x

Central Dixon Entrance Buoy (46145) Wave Buoy

5:00pm - Tue 7th Jul 2015 All times are PDT. -7 hours from GMT.

  • Sig Wave height 5.9ft
  • Peak Period 6s
  • Wind
    29mph, 36mph gusts
  • Sea Temp 57°f
  • Air Temp 55°f
  • Sea Pressure 1017.7mb
  • Central Dixon Entrance Buoy
  • Central Dixon Entrance Buoy

More Historic Weather Station data

Upgrade to MSW Pro to gain access to the past 30 days of data for over 8000 Wavebouys and Weather Stations around the globe.

Join Pro

Comparision Forecast

View Surf forecast
   
Tue 07/07 5:00pm 6ft 6s 29 36 mph 1017.7mb 57f 55f
4:00pm 6ft 6s 27 34 mph 1018.3mb 56f 55f
3:00pm 5.5ft 7s 25 29 mph 1018.5mb 57f 55f
2:00pm 6ft 7s 25 31 mph 1018.8mb 57f 55f
1:00pm 6ft 6s 20 27 mph 1018.8mb 57f 55f
12:00pm 6ft 6s 25 29 mph 1018.6mb 57f 55f
11:00am 5.5ft 7s 22 29 mph 1018.7mb 57f 55f
10:00am 5ft 6s 20 25 mph 1019mb 57f 54f
9:00am 6ft 8s 18 25 mph 1018.7mb 57f 54f
8:00am 5ft 8s 20 25 mph 1018mb 56f 54f
7:00am 5.5ft 8s 22 25 mph 1017.9mb 56f 53f
6:00am 6ft 6s 22 27 mph 1017.8mb 55f 53f
5:00am 6ft 7s 25 29 mph 1017.8mb 55f 53f
4:00am 6ft 6s 25 31 mph 1017.8mb 55f 54f
3:00am 6ft 7s 25 29 mph 1017.6mb 55f 54f
2:00am 6ft 7s 22 29 mph 1017.7mb 56f 54f
1:00am 6.5ft 7s 25 31 mph 1017.7mb 56f 54f
12:00am 6.5ft 7s 18 25 mph 1018mb 56f 54f
Mon 07/06 11:00pm 6.5ft 7s 27 31 mph 1017.3mb 56f 55f
10:00pm 6ft 7s 22 27 mph 1017.4mb 57f 55f
9:00pm 6ft 7s 25 29 mph 1017.1mb 56f 55f
8:00pm 5.5ft 7s 25 31 mph 1016.9mb 56f 56f
7:00pm 5.5ft 7s 22 27 mph 1016.9mb 57f 56f
6:00pm 5.5ft 7s 22 25 mph 1017.2mb 55f 56f
5:00pm 4.5ft 6s 22 25 mph 1017.5mb 56f 56f
4:00pm 5ft 7s 22 27 mph 1017.4mb 56f 56f
3:00pm 5ft 7s 20 25 mph 1017.3mb 56f 56f
2:00pm 5ft 6s 22 25 mph 1017.5mb 56f 56f
1:00pm 5ft 6s 20 22 mph 1017.7mb 57f 56f
12:00pm 5.5ft 6s 20 25 mph 1017.6mb 57f 56f
11:00am 5ft 7s 20 22 mph 1017.6mb 57f 56f
10:00am 4.5ft 7s 18 22 mph 1017.2mb 56f 56f
9:00am 4ft 6s 16 18 mph 1017.3mb 56f 56f
8:00am 4ft 6s 18 20 mph 1017mb 56f 56f
7:00am 5ft 6s 22 25 mph 1016.5mb 55f 55f
6:00am 4.5ft 5s 20 22 mph 1016.4mb 55f 55f
5:00am 4.5ft 6s 18 22 mph 1016.5mb 55f 55f
4:00am 5ft 6s 22 27 mph 1016.4mb 56f 55f
3:00am 5.5ft 6s 13 18 mph 1017mb 57f 56f
2:00am 5.5ft 6s 16 20 mph 1017mb 57f 56f
1:00am 6ft 6s 18 25 mph 1016.9mb 58f 56f
12:00am 6ft 7s 22 27 mph 1016.7mb 58f 56f
Sun 07/05 11:00pm 6ft 6s 27 31 mph 1016.7mb 58f 56f
10:00pm 5ft 6s 25 31 mph 1016.7mb 58f 56f
9:00pm 5ft 6s 27 31 mph 1016.7mb 57f 57f
8:00pm 4.5ft 6s 25 31 mph 1016.7mb 55f 56f
7:00pm 4.5ft 6s 25 29 mph 1017mb 55f 56f
6:00pm 4.5ft 5s 25 29 mph 1017.2mb 55f 57f
5:00pm 4ft 5s 25 27 mph 1017.8mb 55f 57f
4:00pm 3.5ft 5s 22 27 mph 1018.1mb 56f 57f
3:00pm 3.5ft 5s 20 25 mph 1018.5mb 57f 57f
2:00pm 4ft 5s 20 25 mph 1018.9mb 57f 57f
1:00pm 3.5ft 4s 18 20 mph 1019.3mb 57f 56f
12:00pm 3.5ft 5s 16 20 mph 1019.6mb 57f 56f
11:00am 3.5ft 5s 16 20 mph 1020mb 58f 56f
10:00am 3.5ft 5s 18 20 mph 1020.2mb 57f 56f
9:00am 2.5ft 5s 16 20 mph 1020.1mb 57f 56f
8:00am 2.5ft 5s 18 20 mph 1020.1mb 56f 56f
7:00am 3.5ft 5s 18 20 mph 1019.9mb 56f 56f
6:00am 3.5ft 4s 20 25 mph 1019.6mb 55f 56f
5:00am 3.5ft 5s 20 25 mph 1019.5mb 55f 56f
4:00am 3.5ft 5s 22 27 mph 1019.7mb 55f 56f
3:00am 3.5ft 5s 22 27 mph 1020.1mb 55f 56f
2:00am 3.5ft 5s 20 25 mph 1020.3mb 56f 56f
1:00am 3.5ft 5s 20 25 mph 1020.9mb 56f 56f
12:00am 4.5ft 5s 18 22 mph 1021.4mb 56f 56f
Sat 07/04 11:00pm 4.5ft 5s 18 22 mph 1021.5mb 56f 56f
10:00pm 4.5ft 6s 18 20 mph 1021.7mb 56f 57f
9:00pm 5ft 5s 22 27 mph 1021.4mb 57f 57f
8:00pm 4.5ft 5s 22 29 mph 1021.5mb 57f 57f
7:00pm 3.5ft 5s 22 27 mph 1021.5mb 57f 57f
6:00pm 3ft 4s 18 22 mph 1021.9mb 56f 56f
5:00pm 3.5ft 4s 18 22 mph 1022mb 54f 55f
4:00pm 2.5ft 4s 20 22 mph 1022.3mb 55f 56f
3:00pm 2.5ft 4s 18 22 mph 1022.7mb 55f 56f
2:00pm 2.5ft 7s 20 25 mph 1023mb 56f 56f
1:00pm 2.5ft 7s 16 18 mph 1023.2mb 55f 55f
12:00pm 3.5ft 4s 20 22 mph 1023.1mb 56f 56f
11:00am 3.5ft 5s 18 22 mph 1023.8mb 56f 56f
10:00am 3.5ft 5s 18 22 mph 1024.1mb 56f 56f
9:00am 2.5ft 5s 16 22 mph 1023.9mb 56f 56f
7:00am 2.5ft 5s 16 18 mph 1023.4mb 56f 56f
6:00am 2.5ft 7s 16 18 mph 1023.1mb 55f 55f
5:00am 2.5ft 7s 16 18 mph 1022.9mb 54f 55f
4:00am 2.5ft 5s 18 20 mph 1022.7mb 54f 55f
3:00am 3ft 5s 18 20 mph 1022.7mb 55f 55f
2:00am 3ft 5s 18 22 mph 1022.5mb 55f 55f